Date,TemperatureHighF,TemperatureAvgF,TemperatureLowF,DewpointHighF,DewpointAvgF,DewpointLowF,HumidityHigh,HumidityAvg,HumidityLow,PressureMaxIn,PressureMinIn,WindSpeedMaxMPH,WindSpeedAvgMPH,GustSpeedMaxMPH,PrecipitationSumIn
2012-6-21,80.2,78.7,77.5,70.4,69.4,68.4,79,73,68,30.69,30.67,1,0,4,0.00
2012-6-22,88.1,80.6,74.1,77.0,72.6,69.4,90,77,62,30.67,30.58,2,0,8,18.92
2012-6-23,88.8,79.8,75.3,78.6,74.0,71.5,88,83,68,30.72,30.58,2,0,4,0.44
2012-6-24,82.2,77.7,73.9,77.2,73.5,69.1,90,87,77,30.71,30.56,8,1,15,0.56
2012-6-25,80.2,76.7,74.8,77.3,73.7,72.0,91,91,90,30.55,30.53,7,5,19,0.11
2012-6-26,79.1,74.8,73.2,75.9,72.5,70.9,94,93,89,30.38,30.28,10,3,17,1.87
2012-6-27,84.3,77.3,72.5,73.3,68.6,59.8,94,76,47,30.72,30.36,8,3,21,0.01
2012-6-28,92.3,85.1,75.2,69.6,64.0,58.7,76,51,35,30.81,30.71,7,2,11,0.00
2012-6-29,96.4,82.9,70.3,73.1,68.8,65.1,89,65,43,30.76,30.57,3,1,8,0.00
2012-6-30,97.1,85.4,75.5,77.6,74.4,71.0,88,71,52,30.68,30.55,3,1,8,0.00
2012-7-1,96.9,86.0,77.0,78.0,74.4,71.7,85,69,53,30.77,30.60,4,1,9,0.00
2012-7-2,93.0,83.5,75.7,77.1,72.7,69.5,86,71,57,30.83,30.69,8,2,15,0.00
2012-7-3,95.5,84.4,73.9,77.7,73.3,68.9,87,71,45,30.77,30.65,5,1,11,0.00
2012-7-4,94.2,83.5,76.6,77.0,73.8,71.0,89,74,50,30.79,30.66,5,1,11,0.00
2012-7-5,95.7,83.6,74.1,76.9,73.6,69.7,93,74,44,30.77,30.63,6,1,10,0.01
2012-7-6,97.8,85.3,76.6,77.0,73.2,68.8,90,69,41,30.76,30.65,8,1,16,0.00
2012-7-7,93.9,84.6,77.5,78.3,74.2,69.7,88,72,51,30.80,30.70,7,1,15,0.00
2012-7-8,96.0,84.7,75.9,77.8,73.9,70.9,91,72,49,30.82,30.66,6,1,13,0.00
2012-7-9,95.9,85.3,76.6,78.0,73.8,70.2,89,70,45,30.75,30.61,8,1,13,0.00
2012-7-10,94.2,83.0,76.2,77.1,73.9,68.6,90,75,49,30.76,30.64,6,1,13,0.01
2012-7-11,93.3,83.1,74.8,77.3,73.0,70.8,92,73,51,30.78,30.68,8,1,17,0.00
2012-7-12,91.2,82.6,74.6,76.7,74.1,71.0,92,77,59,30.79,30.68,8,2,15,0.00
2012-7-13,91.2,83.6,76.2,77.3,74.5,72.9,92,75,57,30.82,30.73,8,2,17,0.00
2012-7-14,91.4,83.7,76.8,76.9,74.2,72.0,90,74,55,30.86,30.77,7,2,17,0.00
2012-7-15,80.7,77.9,75.5,75.4,73.2,72.4,92,86,78,30.86,30.80,2,0,6,0.00
2012-7-16,90.1,82.8,77.5,77.9,74.5,73.0,90,77,59,30.78,30.66,3,1,8,0.28
2012-7-17,90.3,80.4,74.3,76.3,73.4,71.5,94,80,58,30.74,30.65,5,1,10,0.00
2012-7-18,91.2,79.7,73.9,77.1,73.8,70.8,94,83,58,30.81,30.71,4,0,9,0.05
2012-7-19,88.1,78.8,76.4,77.8,75.1,71.9,94,89,67,30.87,30.79,5,0,10,0.20
2012-7-20,96.2,84.0,75.0,78.8,75.0,72.4,97,77,48,30.83,30.71,4,1,13,0.00
2012-7-21,94.2,83.7,74.1,78.6,75.0,71.3,93,76,54,30.84,30.74,7,2,14,0.00
2012-7-22,92.8,83.4,76.4,79.4,75.7,72.9,94,79,55,30.92,30.81,7,2,17,0.00
2012-7-23,92.6,82.7,75.3,77.2,74.7,72.2,92,78,57,30.92,30.81,8,2,15,0.00
2012-7-24,93.5,83.4,74.3,76.6,73.5,71.4,92,74,50,30.86,30.65,3,1,9,0.00
2012-7-25,96.8,85.6,77.3,78.5,75.6,72.9,91,74,51,30.73,30.61,6,1,9,0.00
2012-7-26,97.7,86.3,78.0,78.5,75.9,73.0,92,73,50,30.71,30.60,4,1,10,0.00
2012-7-27,96.9,86.5,77.9,76.7,74.8,72.6,90,70,47,30.76,30.64,5,1,13,0.00
2012-7-28,96.9,85.2,77.7,78.0,75.3,72.4,91,74,49,30.79,30.68,6,1,11,0.00
2012-7-29,80.6,79.0,77.7,76.5,75.3,74.9,93,89,85,30.74,30.72,1,0,3,0.00
2012-7-31,88.5,81.9,78.6,75.8,74.3,73.3,84,78,63,30.69,30.62,5,1,11,0.00
2012-8-1,90.6,81.7,76.8,79.7,75.4,73.1,91,82,62,30.69,30.59,3,1,11,0.24
2012-8-2,95.1,83.7,76.1,80.0,75.9,71.0,96,79,50,30.71,30.56,6,1,10,0.02
2012-8-3,92.8,82.1,72.6,78.5,73.9,70.3,94,78,58,30.77,30.66,8,2,15,0.00
2012-8-4,88.3,79.4,74.4,77.7,74.5,71.9,95,85,66,30.83,30.74,10,2,21,0.97
2012-8-5,89.9,79.2,74.8,81.3,76.0,73.8,98,90,71,30.86,30.74,8,2,15,0.97
2012-8-6,90.1,81.8,77.0,79.8,76.9,75.0,97,86,66,30.84,30.69,7,2,15,0.09
2012-8-7,88.5,79.2,75.0,77.4,74.3,71.9,93,85,67,30.77,30.68,4,1,11,0.26
2012-8-8,90.8,78.8,74.6,79.5,75.4,73.1,97,90,64,30.77,30.69,3,0,14,0.74
2012-8-9,91.7,81.6,74.4,79.4,75.7,73.2,97,83,64,30.74,30.61,5,1,11,0.06
2012-8-10,95.0,83.3,74.8,79.5,74.3,70.8,94,76,47,30.69,30.58,8,1,20,0.01
2012-8-11,93.0,81.2,75.0,80.0,74.5,72.1,93,81,56,30.71,30.59,5,1,12,0.02
2012-8-12,90.6,80.8,74.6,79.5,75.6,72.1,94,85,61,30.74,30.67,6,1,10,0.19
2012-8-13,91.7,82.7,74.8,80.0,76.1,73.3,96,82,61,30.78,30.66,6,1,12,0.01
2012-8-14,93.3,82.0,72.5,78.2,74.6,70.2,94,80,54,30.75,30.62,6,1,12,0.00
2012-8-15,93.5,82.8,76.2,79.1,75.8,73.4,94,80,56,30.74,30.66,4,1,9,0.01
2012-8-16,93.7,82.8,73.9,79.1,75.3,70.1,94,79,56,30.80,30.65,8,1,15,0.26
2012-8-17,90.3,78.2,73.9,80.5,74.7,71.1,97,89,66,30.74,30.63,4,0,12,0.34
2012-8-18,94.6,82.9,75.2,78.0,75.2,72.1,97,79,51,30.66,30.54,4,1,9,0.00
2012-8-19,88.7,78.9,75.0,79.3,75.5,73.3,96,90,70,30.67,30.59,6,1,19,0.34
2012-8-20,91.9,78.1,73.7,79.3,75.0,72.2,99,91,61,30.74,30.57,5,1,13,1.38
2012-8-21,83.1,74.5,72.5,77.5,72.8,70.4,99,95,79,30.79,30.66,2,0,6,0.31
2012-8-22,85.6,76.5,71.0,76.9,73.7,70.4,99,92,71,30.79,30.72,5,1,8,0.13
2012-8-23,85.6,78.2,73.0,77.0,73.5,67.8,99,86,69,30.82,30.74,4,0,8,0.01
2012-8-24,87.4,76.9,68.1,74.3,70.3,66.6,97,81,59,30.82,30.72,4,1,11,0.00
2012-8-25,85.2,78.2,70.8,75.2,72.0,69.2,96,82,66,30.81,30.74,6,2,15,0.00
2012-8-29,83.6,75.7,64.2,82.0,73.8,61.8,95,94,92,30.74,30.71,2,0,4,0.05
2012-8-30,90.3,81.0,-23.0,85.6,76.8,-24.0,99,88,69,30.91,30.69,5,1,13,0.01
2012-8-31,90.8,82.2,76.2,80.4,77.3,75.3,99,86,65,30.93,30.84,5,1,12,0.00
2012-9-1,93.9,83.0,75.3,79.7,75.7,72.9,99,80,53,30.90,30.77,6,1,11,0.00
2012-9-2,93.0,81.3,75.5,78.7,75.1,72.6,96,83,57,30.82,30.67,4,1,13,0.37
2012-9-3,92.8,82.0,72.5,76.8,73.0,70.3,94,76,56,30.77,30.66,7,1,13,0.00
2012-9-4,93.9,82.2,74.1,77.0,73.4,71.0,93,76,51,30.74,30.61,7,1,16,0.02
2012-9-5,91.5,81.1,72.8,78.0,74.6,70.8,96,82,61,30.69,30.60,5,1,11,0.00
2012-9-10,88.8,82.1,77.0,71.1,68.0,65.3,79,63,52,30.80,30.71,6,2,15,0.00
2012-9-11,87.8,80.8,76.2,69.2,65.8,61.8,73,61,42,30.90,30.79,8,3,16,0.00
2012-9-12,87.4,79.1,73.5,73.3,70.9,68.0,94,77,55,30.92,30.85,9,3,22,0.27
2012-9-13,82.9,76.3,72.5,76.8,72.6,70.1,95,89,78,30.91,30.81,8,1,17,0.37
2012-9-14,87.0,78.3,72.5,77.8,73.9,71.1,99,87,69,30.86,30.76,9,2,15,0.27
2012-9-15,86.0,77.7,71.9,77.5,73.8,70.1,98,88,72,30.84,30.77,6,1,20,0.50
2012-9-16,91.4,79.4,71.4,77.0,73.3,70.2,98,83,58,30.82,30.70,7,1,12,0.00
2012-9-17,89.2,79.8,71.7,76.5,73.0,70.1,97,81,61,30.77,30.61,9,2,17,0.00
2012-9-18,80.4,76.8,74.4,76.5,73.9,72.4,97,91,82,30.66,30.53,7,1,12,0.13
2012-9-19,88.3,79.5,73.7,76.0,73.9,72.2,97,84,61,30.77,30.59,4,1,7,0.00
2012-9-20,85.4,76.0,55.2,76.8,73.1,52.0,96,91,71,30.80,30.71,8,1,21,0.78
2012-9-21,81.6,78.7,75.3,79.2,76.6,72.2,99,94,90,30.75,30.75,2,1,6,0.00
2012-9-23,86.1,58.4,17.7,62.9,47.4,9.3,97,69,46,30.90,30.73,1,0,2,0.00
2012-9-24,125.9,76.1,-34.0,96.6,57.5,-45.0,91,55,35,31.04,30.74,2,0,3,0.00
2012-9-25,133.8,79.3,54.3,91.4,69.0,45.4,76,71,61,30.87,30.74,8,3,19,0.00
2012-9-26,86.7,80.1,77.5,73.7,72.6,70.8,85,78,60,30.87,30.79,4,2,9,0.00
2012-9-27,88.1,79.4,73.0,75.6,71.2,67.7,93,77,57,30.87,30.78,8,2,15,0.00
2012-9-28,88.7,78.8,72.3,75.8,71.8,68.7,94,80,60,30.82,30.69,7,1,12,0.00
2012-9-29,91.5,78.7,70.3,75.4,69.1,63.2,94,75,43,30.74,30.57,6,1,11,0.00
2012-9-30,89.4,79.5,73.7,76.1,72.4,69.3,93,80,52,30.62,30.47,8,1,13,0.08
2012-10-1,90.3,79.0,71.6,77.1,73.3,69.4,95,84,55,30.53,30.40,8,1,15,0.12
2012-10-2,91.4,80.6,75.0,78.1,73.9,70.9,96,81,54,30.73,30.47,4,1,11,0.09
2012-10-3,87.4,78.6,75.5,76.2,74.3,72.9,94,87,66,30.91,30.72,4,0,9,0.06
2012-10-4,90.3,77.1,72.3,78.5,73.6,68.6,96,90,63,30.93,30.85,4,1,12,1.37
2012-10-5,85.6,78.5,74.4,78.6,74.9,73.2,97,89,74,30.88,30.71,5,1,11,0.05
2012-10-6,88.1,78.2,73.5,77.9,73.8,71.8,96,87,67,30.74,30.60,6,1,10,0.05
2012-10-7,90.8,78.9,71.2,75.6,72.4,69.4,96,82,57,30.72,30.63,7,1,11,0.00
2012-10-8,87.2,77.6,71.4,76.4,72.8,68.9,95,86,62,30.77,30.63,4,1,9,0.97
2012-10-9,71.2,67.6,63.5,68.7,64.8,61.1,93,91,86,30.85,30.75,4,1,9,0.00
2012-10-10,87.4,69.0,60.2,67.8,63.1,58.7,96,83,49,30.89,30.75,3,0,9,0.00
2012-10-11,84.7,70.9,62.9,67.3,62.2,57.7,94,76,43,30.95,30.85,6,1,12,0.00
2012-10-12,88.8,72.2,63.5,68.2,62.4,58.5,94,74,40,30.97,30.84,6,1,15,0.00
2012-10-13,84.0,75.5,66.2,70.5,65.2,62.9,92,72,51,30.98,30.88,8,2,17,0.00
2012-10-14,84.5,77.6,69.9,74.2,69.2,65.1,93,76,62,30.91,30.74,11,2,17,0.18
2012-10-15,92.1,76.2,68.9,74.0,69.1,66.4,95,80,48,30.74,30.51,2,0,6,0.00
2012-10-16,82.0,71.1,63.1,67.5,60.1,56.6,86,69,48,30.64,30.56,5,1,13,0.00
2012-10-17,78.9,69.3,61.5,68.9,63.5,58.1,94,83,63,30.66,30.55,5,0,10,0.00
2012-10-18,88.8,75.5,67.6,72.1,68.0,60.1,97,80,45,30.61,30.48,4,1,9,0.00
2012-10-19,89.4,74.1,68.5,70.5,65.2,59.5,94,76,42,30.60,30.50,5,1,9,0.00
2012-10-20,90.1,69.4,58.6,64.0,51.0,34.6,90,59,16,30.72,30.55,3,1,8,0.00
2012-10-21,86.7,66.3,55.2,59.2,53.9,48.2,89,68,30,30.85,30.71,5,1,11,0.00
2012-10-22,84.0,70.6,62.4,65.3,60.9,58.7,93,73,46,30.89,30.80,9,2,16,0.00
2012-10-23,86.1,72.6,63.6,67.7,63.5,60.1,95,75,48,30.87,30.76,9,2,17,0.00
2012-10-24,84.3,74.1,64.4,70.4,65.2,61.7,93,75,49,30.82,30.72,9,2,17,0.00
2012-10-25,84.3,78.1,71.6,71.1,69.0,66.3,85,74,61,30.73,30.61,9,3,19,0.00
2012-10-26,77.9,75.8,71.9,72.3,67.5,61.3,85,76,66,30.62,30.41,8,3,22,0.00
2012-10-27,73.4,70.5,68.0,63.7,62.0,59.7,82,75,68,30.41,30.28,5,2,16,0.00
2012-10-28,83.3,67.9,60.6,60.8,55.9,50.1,83,67,37,30.49,30.32,4,2,12,0.00
2012-10-29,72.8,57.6,49.2,50.3,38.3,28.0,74,51,24,30.57,30.39,5,2,16,0.00
2012-10-30,54.3,50.2,47.1,29.8,28.4,27.0,48,43,37,30.55,30.51,4,2,10,0.00
2012-10-31,76.4,64.0,50.1,48.2,37.8,30.1,61,40,21,30.75,30.59,4,2,11,0.00
2012-11-1,81.3,63.7,52.8,53.7,46.4,34.0,85,58,19,30.76,30.60,3,1,8,0.00
2012-11-2,84.2,60.7,44.9,51.5,42.9,32.5,88,59,18,30.84,30.67,3,0,8,0.00
2012-11-3,91.2,67.9,59.5,62.8,56.1,51.5,95,69,28,30.86,30.73,4,1,7,0.00
2012-11-4,89.0,69.6,58.6,65.0,58.4,52.9,93,71,33,30.84,30.67,4,0,8,0.00
2012-11-5,77.5,66.3,56.8,64.1,57.1,46.3,93,74,37,30.74,30.66,6,1,14,0.00
2012-11-6,78.8,61.6,53.9,60.4,55.5,50.7,95,82,53,30.72,30.52,4,1,9,0.14
2012-11-7,62.6,54.9,47.4,53.1,45.0,39.6,88,71,45,30.77,30.61,4,1,9,0.00
2012-11-8,72.5,53.8,46.0,47.9,44.7,39.6,92,74,31,30.96,30.76,3,1,9,0.01
2012-11-9,75.3,54.8,42.2,49.3,43.1,36.5,93,70,29,31.05,30.95,4,0,9,0.00
2012-11-10,77.1,59.3,44.4,58.1,51.0,41.5,94,76,46,31.11,31.02,5,1,11,0.00
2012-11-11,81.5,68.7,58.2,64.7,60.0,55.2,94,76,45,31.10,31.01,9,2,15,0.00
2012-11-12,78.2,70.3,64.4,70.1,65.8,62.3,94,86,67,31.02,30.93,4,1,11,0.25
2012-11-13,80.2,69.5,61.3,69.6,64.7,59.5,97,86,60,30.94,30.83,4,0,10,0.01
2012-11-14,66.9,62.8,60.6,64.2,61.2,59.2,97,95,91,30.99,30.91,7,3,19,0.05
2012-11-15,61.8,57.8,54.1,61.0,55.0,52.1,97,91,82,30.98,30.86,4,1,9,0.01
2012-11-16,58.2,55.5,52.8,53.6,52.2,50.6,94,89,84,31.00,30.93,6,1,13,0.01
2012-11-17,62.9,60.1,56.3,59.2,56.6,52.4,93,88,84,30.99,30.92,7,3,16,0.02
2012-11-20,72.8,62.4,56.4,55.5,53.9,52.8,90,75,53,30.82,30.75,3,1,9,0.00
2012-11-21,69.6,58.9,51.2,55.1,50.1,41.0,93,76,37,30.87,30.77,8,1,15,0.00
2012-11-22,67.6,53.7,44.4,47.8,41.7,30.5,91,69,28,30.97,30.86,8,1,16,0.00
2012-11-23,75.3,54.4,40.2,48.2,42.2,37.7,92,69,26,30.99,30.80,2,0,6,0.00
2012-11-24,69.6,57.5,46.0,50.5,41.4,30.4,87,59,25,30.88,30.74,4,1,11,0.00
2012-11-25,69.9,51.3,37.0,38.6,28.9,10.1,83,49,10,30.97,30.83,3,0,8,0.00
2012-11-26,70.7,52.4,37.0,47.3,40.1,32.0,92,69,25,31.03,30.91,4,1,9,0.00
2012-11-27,79.5,63.2,50.0,63.1,54.9,46.8,93,76,49,30.96,30.79,5,1,12,0.00
2012-11-28,61.5,56.6,52.3,56.5,53.3,48.8,93,89,81,31.11,30.89,4,1,8,0.05
2012-11-29,68.9,59.4,48.5,57.8,53.9,46.3,95,83,66,31.12,31.05,8,2,16,0.00
2012-11-30,74.8,61.2,52.8,63.3,56.1,51.1,97,85,57,31.08,30.96,4,1,11,0.00
2012-12-1,68.3,63.3,60.0,64.6,61.1,58.0,95,93,86,31.08,30.98,3,0,9,0.08
2012-12-2,76.1,65.0,55.9,66.3,60.0,54.5,97,85,61,31.08,30.98,5,1,11,0.01
2012-12-3,70.3,66.2,59.9,66.2,63.2,56.9,96,91,81,31.08,30.98,4,1,8,0.01
2012-12-4,78.6,65.1,55.7,65.7,57.0,53.6,96,78,44,31.07,30.96,6,1,15,0.00
2012-12-5,73.9,63.4,54.5,64.6,57.7,52.1,96,83,57,30.99,30.83,5,1,9,0.00
2012-12-6,72.1,65.7,63.1,65.9,62.2,59.8,96,89,74,30.84,30.75,5,2,16,0.02
2012-12-7,63.8,62.1,59.1,62.6,60.3,56.8,96,94,91,30.79,30.72,4,1,8,0.00
2012-12-8,70.8,63.0,58.2,63.8,60.5,55.9,96,92,77,30.83,30.74,4,1,8,0.00
2012-12-9,76.6,66.3,59.0,69.9,63.4,57.2,97,91,78,30.85,30.73,3,1,7,0.00
2012-12-12,63.1,61.1,59.5,61.9,59.8,58.2,97,96,94,30.88,30.79,3,1,8,0.59
2012-12-13,62.6,54.5,50.5,61.7,52.7,48.3,97,94,88,31.05,30.83,4,1,10,0.05
2012-12-14,61.1,55.1,50.1,55.7,52.0,48.9,97,90,75,31.07,30.92,8,1,14,0.01
2012-12-15,69.6,61.6,54.6,63.8,58.3,51.5,96,89,80,30.94,30.83,4,1,10,0.00
2012-12-16,77.5,65.3,56.3,68.0,61.7,54.8,97,89,68,30.84,30.67,5,1,9,0.01
2012-12-17,64.4,62.2,60.6,62.9,60.5,58.5,96,94,92,30.71,30.64,3,0,6,0.00
2012-12-20,80.0,72.9,62.2,67.4,63.6,52.7,95,74,56,30.82,30.54,8,3,17,0.34
2012-12-21,61.8,51.6,44.9,52.7,39.0,31.9,73,62,55,30.84,30.62,4,2,13,0.00
2012-12-22,61.5,50.1,37.7,34.0,26.7,15.4,80,46,17,31.04,30.94,2,1,7,0.00
2012-12-23,62.2,47.2,32.5,43.0,33.0,18.7,91,64,19,31.05,30.91,3,0,6,0.00
2012-12-24,68.9,58.0,45.5,56.4,48.9,41.8,87,73,54,30.93,30.69,4,1,11,0.00
2012-12-25,75.0,64.6,56.6,62.8,57.6,51.2,89,79,61,30.76,30.60,6,2,14,0.01
2012-12-26,71.7,63.3,43.7,66.0,53.4,33.7,92,71,46,30.75,30.39,9,3,20,0.07
2012-12-27,61.3,46.8,38.3,41.1,36.4,32.8,89,68,42,30.87,30.75,4,1,10,0.00
2012-12-28,66.5,51.6,37.4,56.9,45.2,34.9,93,80,57,30.92,30.64,5,1,10,0.00
2012-12-29,72.8,62.6,44.9,69.7,55.2,33.1,99,78,50,30.94,30.50,6,2,15,0.21
2012-12-30,54.5,44.3,37.7,38.4,32.6,27.4,90,65,37,31.19,30.95,5,1,11,0.00
2012-12-31,66.7,52.2,41.1,53.9,46.4,38.6,92,82,62,31.18,30.99,4,1,8,0.00
2013-1-1,77.1,62.0,49.2,59.5,53.8,46.9,96,77,49,30.99,30.76,4,1,10,0.00